createdAt,value
2018-04-15T00:02:13.854Z,15.88
2018-04-15T00:04:41.428Z,15.84
2018-04-15T00:07:09.135Z,15.77
2018-04-15T00:09:36.752Z,15.68
2018-04-15T00:12:04.337Z,15.57
2018-04-15T00:14:31.911Z,15.47
2018-04-15T00:16:59.643Z,15.47
2018-04-15T00:19:27.204Z,15.39
2018-04-15T00:21:54.776Z,15.34
2018-04-15T00:24:22.347Z,15.33
2018-04-15T00:26:50.117Z,15.30
2018-04-15T00:29:17.937Z,15.27
2018-04-15T00:31:45.505Z,15.21
2018-04-15T00:34:13.275Z,15.14
2018-04-15T00:36:40.840Z,15.02
2018-04-15T00:39:08.470Z,14.94
2018-04-15T00:41:36.033Z,14.93
2018-04-15T00:44:03.617Z,14.99
2018-04-15T00:46:31.327Z,15.05
2018-04-15T00:48:59.044Z,15.03
2018-04-15T00:51:26.616Z,14.99
2018-04-15T00:54:05.945Z,14.99
2018-04-15T00:56:33.567Z,15.00
2018-04-15T00:59:01.183Z,14.96
2018-04-15T01:01:28.809Z,14.93
2018-04-15T01:03:56.629Z,14.88
2018-04-15T01:06:24.195Z,14.83
2018-04-15T01:08:51.783Z,14.76
2018-04-15T01:11:19.584Z,14.67
2018-04-15T01:13:47.160Z,14.67
2018-04-15T01:16:14.727Z,14.73
2018-04-15T01:18:42.538Z,14.76
2018-04-15T01:21:10.130Z,14.71
2018-04-15T01:23:37.710Z,14.64
2018-04-15T01:26:05.469Z,14.60
2018-04-15T01:28:33.035Z,14.49
2018-04-15T01:31:00.828Z,14.43
2018-04-15T01:33:28.647Z,14.34
2018-04-15T01:35:56.274Z,14.24
2018-04-15T01:38:23.844Z,14.21
2018-04-15T01:40:51.405Z,14.23
2018-04-15T01:43:18.991Z,14.28
2018-04-15T01:45:46.557Z,14.25
2018-04-15T01:48:14.133Z,14.28
2018-04-15T01:50:41.697Z,14.30
2018-04-15T01:53:09.312Z,14.39
2018-04-15T01:55:36.868Z,14.41
2018-04-15T01:58:04.433Z,14.28
2018-04-15T02:00:32.242Z,14.24
2018-04-15T02:02:59.801Z,14.18
2018-04-15T02:05:27.579Z,14.18
2018-04-15T02:07:55.299Z,14.12
2018-04-15T02:10:22.918Z,14.07
2018-04-15T02:12:50.476Z,14.00
2018-04-15T02:15:18.013Z,13.97
2018-04-15T02:17:45.584Z,13.96
2018-04-15T02:20:13.149Z,13.84
2018-04-15T02:22:40.877Z,13.74
2018-04-15T02:25:08.598Z,13.71
2018-04-15T02:27:36.217Z,13.68
2018-04-15T02:30:03.853Z,13.72
2018-04-15T02:32:31.679Z,13.71
2018-04-15T02:34:59.287Z,13.67
2018-04-15T02:37:26.906Z,13.66
2018-04-15T02:39:54.490Z,13.64
2018-04-15T02:42:22.084Z,13.69
2018-04-15T02:44:49.871Z,13.73
2018-04-15T02:47:17.454Z,13.67
2018-04-15T02:49:45.020Z,13.67
2018-04-15T02:52:12.700Z,13.67
2018-04-15T02:54:40.423Z,13.66
2018-04-15T02:57:08.135Z,13.63
2018-04-15T02:59:35.700Z,13.67
2018-04-15T03:02:03.324Z,13.62
2018-04-15T03:04:30.893Z,13.58
2018-04-15T03:06:58.442Z,13.60
2018-04-15T03:09:26.011Z,13.64
2018-04-15T03:11:53.735Z,13.66
2018-04-15T03:14:22.156Z,13.69
2018-04-15T03:16:49.734Z,13.67
2018-04-15T03:19:17.356Z,13.66
2018-04-15T03:21:44.912Z,13.59
2018-04-15T03:24:12.760Z,13.61
2018-04-15T03:26:40.337Z,13.60
2018-04-15T03:29:07.891Z,13.56
2018-04-15T03:31:35.461Z,13.50
2018-04-15T03:34:03.015Z,13.48
2018-04-15T03:36:30.848Z,13.55
2018-04-15T03:38:58.668Z,13.50
2018-04-15T03:41:26.228Z,13.48
2018-04-15T03:43:54.012Z,13.47
2018-04-15T03:46:21.600Z,13.42
2018-04-15T03:48:49.169Z,13.40
2018-04-15T03:51:16.960Z,13.41
2018-04-15T03:53:44.591Z,13.41
2018-04-15T03:56:12.161Z,13.42
2018-04-15T03:58:39.878Z,13.51
2018-04-15T04:01:07.445Z,13.58
2018-04-15T04:03:35.016Z,13.64
2018-04-15T04:06:02.580Z,13.70
2018-04-15T04:08:30.151Z,13.74
2018-04-15T04:10:57.780Z,13.83
2018-04-15T04:13:25.723Z,13.86
2018-04-15T04:15:53.312Z,13.90
2018-04-15T04:21:39.955Z,13.95
2018-04-15T04:24:19.515Z,14.00
2018-04-15T04:26:47.141Z,14.07
2018-04-15T04:29:14.704Z,14.16
2018-04-15T04:31:42.264Z,14.23
2018-04-15T04:34:10.087Z,14.26
2018-04-15T04:36:37.805Z,14.27
2018-04-15T04:39:06.200Z,14.35
2018-04-15T04:41:33.924Z,14.49
2018-04-15T04:44:01.636Z,14.66
2018-04-15T04:46:29.223Z,14.78
2018-04-15T04:48:56.999Z,14.91
2018-04-15T04:51:24.607Z,15.26
2018-04-15T04:53:52.169Z,15.70
2018-04-15T04:56:19.952Z,16.18
2018-04-15T04:58:47.513Z,16.71
2018-04-15T05:01:15.181Z,17.27
2018-04-15T05:03:42.791Z,18.13
2018-04-15T05:06:10.486Z,18.84
2018-04-15T05:08:38.243Z,19.47
2018-04-15T05:11:05.817Z,20.04
2018-04-15T05:13:33.583Z,20.78
2018-04-15T05:16:01.278Z,22.12
2018-04-15T05:18:28.836Z,23.45
2018-04-15T05:20:56.404Z,24.36
2018-04-15T05:23:23.964Z,24.68
2018-04-15T05:25:52.527Z,25.12
2018-04-15T05:28:20.264Z,25.61
2018-04-15T05:30:47.900Z,26.17
2018-04-15T05:33:15.438Z,26.90
2018-04-15T05:35:43.148Z,27.17
2018-04-15T05:38:10.963Z,26.82
2018-04-15T05:40:38.509Z,26.26
2018-04-15T05:43:06.093Z,26.24
2018-04-15T05:45:33.818Z,26.38
2018-04-15T05:48:01.529Z,25.79
2018-04-15T05:50:29.095Z,25.50
2018-04-15T05:52:56.648Z,25.12
2018-04-15T05:55:24.220Z,25.31
2018-04-15T05:57:51.892Z,25.87
2018-04-15T06:00:19.726Z,26.57
2018-04-15T06:02:47.280Z,26.27
2018-04-15T06:05:14.894Z,25.34
2018-04-15T06:07:42.459Z,24.72
2018-04-15T06:10:10.197Z,23.97
2018-04-15T06:12:37.784Z,23.94
2018-04-15T06:15:05.369Z,24.15
2018-04-15T06:17:33.151Z,24.58
2018-04-15T06:20:00.722Z,25.22
2018-04-15T06:22:28.340Z,26.38
2018-04-15T06:24:55.897Z,27.94
2018-04-15T06:27:23.597Z,28.82
2018-04-15T06:29:51.314Z,29.00
2018-04-15T06:32:19.031Z,29.40
2018-04-15T06:34:46.748Z,29.70
2018-04-15T06:37:14.465Z,30.18
2018-04-15T06:39:42.085Z,29.57
2018-04-15T06:42:09.832Z,29.06
2018-04-15T06:44:37.541Z,29.12
2018-04-15T06:47:05.368Z,29.66
2018-04-15T06:49:32.928Z,29.88
2018-04-15T06:52:00.504Z,30.41
2018-04-15T06:54:28.056Z,31.03
2018-04-15T06:56:55.673Z,31.25
2018-04-15T06:59:23.459Z,31.23
2018-04-15T07:01:51.035Z,31.04
2018-04-15T07:04:18.620Z,30.74
2018-04-15T07:06:46.412Z,30.37
2018-04-15T07:09:14.008Z,29.67
2018-04-15T07:11:41.728Z,29.04
2018-04-15T07:14:09.376Z,28.35
2018-04-15T07:16:36.951Z,27.71
2018-04-15T07:19:04.512Z,27.17
2018-04-15T07:21:32.100Z,26.42
2018-04-15T07:23:59.668Z,25.87
2018-04-15T07:26:27.348Z,25.29
2018-04-15T07:28:54.914Z,25.00
2018-04-15T07:31:22.535Z,24.79
2018-04-15T07:33:50.282Z,24.51
2018-04-15T07:36:17.872Z,24.35
2018-04-15T07:38:45.647Z,24.21
2018-04-15T07:41:13.262Z,24.18
2018-04-15T07:43:41.084Z,24.17
2018-04-15T07:46:08.902Z,24.01
2018-04-15T07:48:36.512Z,23.85
2018-04-15T07:51:04.238Z,23.71
2018-04-15T07:53:31.957Z,23.70
2018-04-15T07:55:59.528Z,23.64
2018-04-15T07:58:27.089Z,23.57
2018-04-15T08:00:54.913Z,23.53
2018-04-15T08:03:22.472Z,23.36
2018-04-15T08:05:50.093Z,23.30
2018-04-15T08:08:17.660Z,23.25
2018-04-15T08:10:45.484Z,23.19
2018-04-15T08:13:13.066Z,23.12
2018-04-15T08:15:40.633Z,22.99
2018-04-15T08:18:08.199Z,23.02
2018-04-15T08:20:35.772Z,23.18
2018-04-15T08:23:03.418Z,23.70
2018-04-15T08:25:31.190Z,24.51
2018-04-15T08:27:58.744Z,24.94
2018-04-15T08:30:26.313Z,24.92
2018-04-15T08:32:53.889Z,25.11
2018-04-15T08:35:21.468Z,25.05
2018-04-15T08:37:49.281Z,24.75
2018-04-15T08:40:17.109Z,24.87
2018-04-15T08:42:44.673Z,25.11
2018-04-15T08:45:12.396Z,25.19
2018-04-15T08:47:39.976Z,25.37
2018-04-15T08:50:07.754Z,25.65
2018-04-15T08:52:35.493Z,26.00
2018-04-15T08:55:03.309Z,26.05
2018-04-15T08:57:30.921Z,26.11
2018-04-15T08:59:58.647Z,26.08
2018-04-15T09:02:26.465Z,25.91
2018-04-15T09:04:54.074Z,25.92
2018-04-15T09:07:21.650Z,26.30
2018-04-15T09:09:49.388Z,26.82
2018-04-15T09:12:17.001Z,27.11
2018-04-15T09:14:44.600Z,27.30
2018-04-15T09:17:12.160Z,27.20
2018-04-15T09:19:39.724Z,27.40
2018-04-15T09:22:07.317Z,27.53
2018-04-15T09:24:34.909Z,27.12
2018-04-15T09:27:02.472Z,27.14
2018-04-15T09:29:30.092Z,27.06
2018-04-15T09:31:57.697Z,27.18
2018-04-15T09:34:25.291Z,27.16
2018-04-15T09:36:52.865Z,27.01
2018-04-15T09:39:20.440Z,27.25
2018-04-15T09:41:48.004Z,27.54
2018-04-15T09:44:15.605Z,27.62
2018-04-15T09:46:43.388Z,27.90
2018-04-15T09:49:11.209Z,28.21
2018-04-15T09:51:38.763Z,28.32
2018-04-15T09:54:06.539Z,27.80
2018-04-15T09:56:34.121Z,27.35
2018-04-15T09:59:01.759Z,27.12
2018-04-15T10:01:29.412Z,27.14
2018-04-15T10:03:56.983Z,27.83
2018-04-15T10:06:24.548Z,28.07
2018-04-15T10:08:52.349Z,27.88
2018-04-15T10:11:20.165Z,27.68
2018-04-15T10:13:47.884Z,27.98
2018-04-15T10:16:15.703Z,28.31
2018-04-15T10:18:43.261Z,28.42
2018-04-15T10:21:10.829Z,28.26
2018-04-15T10:23:38.376Z,28.37
2018-04-15T10:26:06.175Z,28.13
2018-04-15T10:28:33.755Z,28.05
2018-04-15T10:31:01.332Z,27.91
2018-04-15T10:33:28.919Z,27.74
2018-04-15T10:35:56.647Z,27.16
2018-04-15T10:38:24.467Z,26.48
2018-04-15T10:40:52.039Z,26.73
2018-04-15T10:43:19.589Z,27.09
2018-04-15T10:45:47.322Z,27.12
2018-04-15T10:48:14.884Z,27.44
2018-04-15T10:50:42.561Z,27.65
2018-04-15T10:53:10.276Z,27.48
2018-04-15T10:55:37.844Z,27.51
2018-04-15T10:58:05.427Z,27.45
2018-04-15T11:00:33.027Z,27.59
2018-04-15T11:03:00.851Z,27.97
2018-04-15T11:05:28.409Z,28.33
2018-04-15T11:07:56.186Z,28.59
2018-04-15T11:10:23.753Z,28.58
2018-04-15T11:12:51.364Z,28.25
2018-04-15T11:15:19.139Z,28.33
2018-04-15T11:17:46.705Z,28.32
2018-04-15T11:20:14.324Z,28.40
2018-04-15T11:22:42.176Z,28.17
2018-04-15T11:25:09.911Z,28.55
2018-04-15T11:27:37.495Z,28.78
2018-04-15T11:30:05.116Z,28.99
2018-04-15T11:32:32.718Z,29.27
2018-04-15T11:35:00.294Z,29.28
2018-04-15T11:37:27.938Z,29.44
2018-04-15T11:39:55.490Z,29.22
2018-04-15T11:42:23.237Z,29.22
2018-04-15T11:44:50.827Z,28.48
2018-04-15T11:47:18.435Z,27.68
2018-04-15T11:49:46.043Z,27.16
2018-04-15T11:52:13.601Z,27.19
2018-04-15T11:54:41.220Z,27.74
2018-04-15T11:57:08.780Z,27.80
2018-04-15T11:59:36.332Z,28.06
2018-04-15T12:02:03.971Z,28.35
2018-04-15T12:04:31.663Z,28.26
2018-04-15T12:06:59.238Z,28.20
2018-04-15T12:09:26.804Z,27.77
2018-04-15T12:11:54.408Z,27.70
2018-04-15T12:14:21.977Z,27.60
2018-04-15T12:16:49.796Z,27.62
2018-04-15T12:19:17.351Z,27.67
2018-04-15T12:21:45.123Z,27.79
2018-04-15T12:24:12.943Z,27.79
2018-04-15T12:26:40.550Z,27.34
2018-04-15T12:29:08.168Z,27.04
2018-04-15T12:31:35.897Z,27.14
2018-04-15T12:34:03.460Z,27.33
2018-04-15T12:36:31.030Z,27.50
2018-04-15T12:38:58.595Z,27.55
2018-04-15T12:41:26.369Z,27.78
2018-04-15T12:43:53.929Z,28.00
2018-04-15T12:46:21.536Z,27.72
2018-04-15T12:48:49.096Z,27.21
2018-04-15T12:51:16.811Z,26.60
2018-04-15T12:53:44.394Z,26.54
2018-04-15T12:56:11.949Z,26.34
2018-04-15T12:58:39.799Z,26.05
2018-04-15T13:01:07.348Z,25.83
2018-04-15T13:03:34.988Z,25.65
2018-04-15T13:06:02.752Z,25.60
2018-04-15T13:08:30.302Z,25.59
2018-04-15T13:10:57.910Z,25.55
2018-04-15T13:13:25.489Z,25.42
2018-04-15T13:15:53.321Z,25.30
2018-04-15T13:18:20.882Z,25.33
2018-04-15T13:20:48.495Z,25.22
2018-04-15T13:23:16.038Z,25.26
2018-04-15T13:25:43.621Z,25.36
2018-04-15T13:28:11.188Z,25.51
2018-04-15T13:30:38.929Z,25.58
2018-04-15T13:33:06.492Z,25.84
2018-04-15T13:35:34.044Z,26.05
2018-04-15T13:38:01.669Z,25.91
2018-04-15T13:40:29.401Z,25.92
2018-04-15T13:42:57.119Z,25.85
2018-04-15T13:45:24.938Z,25.84
2018-04-15T13:47:52.524Z,26.13
2018-04-15T13:50:20.101Z,26.18
2018-04-15T13:52:47.656Z,26.53
2018-04-15T13:55:15.307Z,26.53
2018-04-15T13:57:43.028Z,26.53
2018-04-15T14:00:10.584Z,26.44
2018-04-15T14:02:38.364Z,26.04
2018-04-15T14:05:06.085Z,26.06
2018-04-15T14:07:33.660Z,26.21
2018-04-15T14:10:01.208Z,26.24
2018-04-15T14:12:28.916Z,26.10
2018-04-15T14:14:56.481Z,26.10
2018-04-15T14:17:24.072Z,25.66
2018-04-15T14:19:51.640Z,25.40
2018-04-15T14:22:19.228Z,25.37
2018-04-15T14:24:46.815Z,25.21
2018-04-15T14:27:14.367Z,25.28
2018-04-15T14:29:41.977Z,25.18
2018-04-15T14:32:09.529Z,25.14
2018-04-15T14:34:37.087Z,24.94
2018-04-15T14:37:04.668Z,24.86
2018-04-15T14:39:32.223Z,24.81
2018-04-15T14:41:59.803Z,24.78
2018-04-15T14:44:27.568Z,24.58
2018-04-15T14:46:55.189Z,24.48
2018-04-15T14:49:22.761Z,24.31
2018-04-15T14:51:50.522Z,24.28
2018-04-15T14:54:18.090Z,24.22
2018-04-15T14:56:45.859Z,24.25
2018-04-15T14:59:13.445Z,24.10
2018-04-15T15:01:41.045Z,24.03
2018-04-15T15:04:08.692Z,24.00
2018-04-15T15:06:36.413Z,23.93
2018-04-15T15:09:04.052Z,23.86
2018-04-15T15:11:31.620Z,23.78
2018-04-15T15:13:59.191Z,23.63
2018-04-15T15:16:27.003Z,23.59
2018-04-15T15:18:54.546Z,23.59
2018-04-15T15:21:22.141Z,23.55
2018-04-15T15:23:49.748Z,23.46
2018-04-15T15:26:17.447Z,23.41
2018-04-15T15:28:45.031Z,23.31
2018-04-15T15:31:12.593Z,23.27
2018-04-15T15:33:40.234Z,23.20
2018-04-15T15:36:08.049Z,23.10
2018-04-15T15:38:35.660Z,23.05
2018-04-15T15:41:03.347Z,23.02
2018-04-15T15:43:30.904Z,23.02
2018-04-15T15:45:58.469Z,23.01
2018-04-15T15:48:26.033Z,23.00
2018-04-15T15:50:53.856Z,22.97
2018-04-15T15:53:21.448Z,22.85
2018-04-15T15:55:49.073Z,22.81
2018-04-15T15:58:16.688Z,22.74
2018-04-15T16:00:44.259Z,22.67
2018-04-15T16:03:12.045Z,22.56
2018-04-15T16:05:39.609Z,22.45
2018-04-15T16:08:07.172Z,22.37
2018-04-15T16:10:34.728Z,22.32
2018-04-15T16:13:02.353Z,22.21
2018-04-15T16:15:29.925Z,22.12
2018-04-15T16:17:57.490Z,22.05
2018-04-15T16:20:25.054Z,21.99
2018-04-15T16:22:52.618Z,21.98
2018-04-15T16:25:20.406Z,21.92
2018-04-15T16:27:48.225Z,21.86
2018-04-15T16:30:15.943Z,21.75
2018-04-15T16:32:43.763Z,21.72
2018-04-15T16:35:11.324Z,21.71
2018-04-15T16:37:39.059Z,21.68
2018-04-15T16:40:06.737Z,21.59
2018-04-15T16:42:34.332Z,21.53
2018-04-15T16:45:01.913Z,21.46
2018-04-15T16:47:29.628Z,21.43
2018-04-15T16:49:57.273Z,21.36
2018-04-15T16:52:24.837Z,21.32
2018-04-15T16:54:52.464Z,21.26
2018-04-15T16:57:20.049Z,21.25
2018-04-15T16:59:47.779Z,21.21
2018-04-15T17:02:15.353Z,21.14
2018-04-15T17:04:42.923Z,21.10
2018-04-15T17:07:10.713Z,21.03
2018-04-15T17:09:38.289Z,21.00
2018-04-15T17:12:06.151Z,20.98
2018-04-15T17:14:33.709Z,20.96
2018-04-15T17:17:01.488Z,20.92
2018-04-15T17:19:29.305Z,20.90
2018-04-15T17:21:56.869Z,20.90
2018-04-15T17:24:24.475Z,20.88
2018-04-15T17:26:52.042Z,20.85
2018-04-15T17:29:19.684Z,20.82
2018-04-15T17:31:47.453Z,20.79
2018-04-15T17:34:15.017Z,20.74
2018-04-15T17:36:42.617Z,20.71
2018-04-15T17:39:10.190Z,20.67
2018-04-15T17:41:37.768Z,20.70
2018-04-15T17:44:05.340Z,20.72
2018-04-15T17:46:32.952Z,20.70
2018-04-15T17:49:00.513Z,20.70
2018-04-15T17:51:28.340Z,20.65
2018-04-15T17:53:56.045Z,20.61
2018-04-15T17:56:23.659Z,20.58
2018-04-15T17:58:51.429Z,20.58
2018-04-15T18:01:19.211Z,20.53
2018-04-15T18:03:46.824Z,20.56
2018-04-15T18:06:14.548Z,20.57
2018-04-15T18:08:42.109Z,20.55
2018-04-15T18:11:09.843Z,20.54
2018-04-15T18:13:37.407Z,20.53
2018-04-15T18:16:04.996Z,20.52
2018-04-15T18:18:32.719Z,20.50
2018-04-15T18:21:00.359Z,20.46
2018-04-15T18:23:28.175Z,20.44
2018-04-15T18:25:55.762Z,20.45
2018-04-15T18:28:23.610Z,20.44
2018-04-15T18:30:51.179Z,20.48
2018-04-15T18:33:19.044Z,20.47
2018-04-15T18:35:46.736Z,20.44
2018-04-15T18:38:14.300Z,20.45
2018-04-15T18:40:41.872Z,20.46
2018-04-15T18:43:09.587Z,20.43
2018-04-15T18:45:37.248Z,20.39
2018-04-15T18:48:04.819Z,20.37
2018-04-15T18:50:32.467Z,20.34
2018-04-15T18:53:00.045Z,20.31
2018-04-15T18:55:27.604Z,20.31
2018-04-15T18:57:55.429Z,20.27
2018-04-15T19:00:23.248Z,20.28
2018-04-15T19:02:50.802Z,20.23
2018-04-15T19:05:18.695Z,20.25
2018-04-15T19:07:46.503Z,20.22
2018-04-15T19:10:14.222Z,20.23
2018-04-15T19:12:41.954Z,20.22
2018-04-15T19:15:09.506Z,20.22
2018-04-15T19:17:37.276Z,20.20
2018-04-15T19:20:04.883Z,20.19
2018-04-15T19:22:32.453Z,20.11
2018-04-15T19:25:00.069Z,20.09
2018-04-15T19:27:27.848Z,20.07
2018-04-15T19:29:55.408Z,20.05
2018-04-15T19:32:22.981Z,20.03
2018-04-15T19:34:50.702Z,20.01
2018-04-15T19:37:18.520Z,20.05
2018-04-15T19:39:46.076Z,20.03
2018-04-15T19:42:13.693Z,20.00
2018-04-15T19:44:41.256Z,19.97
2018-04-15T19:47:08.978Z,19.95
2018-04-15T19:49:36.548Z,19.93
2018-04-15T19:52:04.209Z,19.86
2018-04-15T19:54:31.802Z,19.81
2018-04-15T19:56:59.365Z,19.76
2018-04-15T19:59:26.968Z,19.71
2018-04-15T20:01:54.529Z,19.68
2018-04-15T20:04:22.105Z,19.64
2018-04-15T20:06:49.676Z,19.58
2018-04-15T20:09:17.247Z,19.54
2018-04-15T20:11:44.820Z,19.52
2018-04-15T20:14:12.452Z,19.51
2018-04-15T20:16:40.297Z,19.49
2018-04-15T20:19:08.041Z,19.50
2018-04-15T20:21:35.637Z,19.53
2018-04-15T20:24:03.236Z,19.58
2018-04-15T20:26:30.796Z,19.58
2018-04-15T20:28:58.413Z,19.55
2018-04-15T20:31:25.949Z,19.58
2018-04-15T20:33:53.504Z,19.56
2018-04-15T20:36:21.076Z,19.50
2018-04-15T20:38:48.639Z,19.46
2018-04-15T20:41:16.280Z,19.44
2018-04-15T20:43:43.862Z,19.40
2018-04-15T20:46:11.424Z,19.36
2018-04-15T20:48:39.001Z,19.30
2018-04-15T20:51:06.733Z,19.22
2018-04-15T20:53:34.401Z,19.18
2018-04-15T20:56:02.198Z,19.13
2018-04-15T20:58:29.768Z,19.08
2018-04-15T21:00:57.423Z,18.99
2018-04-15T21:03:25.024Z,18.95
2018-04-15T21:05:52.677Z,18.92
2018-04-15T21:08:20.257Z,18.84
2018-04-15T21:10:47.963Z,18.85
2018-04-15T21:13:15.680Z,18.83
2018-04-15T21:15:43.397Z,18.79
2018-04-15T21:18:11.014Z,18.77
2018-04-15T21:20:38.755Z,18.74
2018-04-15T21:23:06.338Z,18.72
2018-04-15T21:25:33.912Z,18.73
2018-04-15T21:28:01.730Z,18.75
2018-04-15T21:30:29.551Z,18.74
2018-04-15T21:32:57.267Z,18.72
2018-04-15T21:35:24.828Z,18.74
2018-04-15T21:37:52.518Z,18.72
2018-04-15T21:40:20.200Z,18.68
2018-04-15T21:42:47.820Z,18.67
2018-04-15T21:45:15.524Z,18.69
2018-04-15T21:47:43.120Z,18.69
2018-04-15T21:50:10.855Z,18.66
2018-04-15T21:52:38.441Z,18.67
2018-04-15T21:55:06.332Z,18.64
2018-04-15T21:57:33.900Z,18.59
2018-04-15T22:00:01.767Z,18.54
2018-04-15T22:02:29.392Z,18.52
2018-04-15T22:04:56.997Z,18.50
2018-04-15T22:07:24.582Z,18.45
2018-04-15T22:09:52.139Z,18.40
2018-04-15T22:12:19.957Z,18.36
2018-04-15T22:14:47.572Z,18.35
2018-04-15T22:17:15.104Z,18.34
2018-04-15T22:19:42.912Z,18.27
2018-04-15T22:22:10.628Z,18.21
2018-04-15T22:24:38.248Z,18.15
2018-04-15T22:27:06.067Z,18.12
2018-04-15T22:29:33.633Z,18.09
2018-04-15T22:32:01.285Z,18.04
2018-04-15T22:34:28.836Z,18.06
2018-04-15T22:36:56.412Z,18.05
2018-04-15T22:39:24.052Z,18.03
2018-04-15T22:41:51.602Z,18.04
2018-04-15T22:44:19.169Z,18.03
2018-04-15T22:46:46.734Z,18.02
2018-04-15T22:49:19.872Z,18.01
2018-04-15T22:51:47.450Z,18.01
2018-04-15T22:54:15.048Z,18.01
2018-04-15T22:56:43.448Z,17.98
2018-04-15T22:59:11.028Z,17.97
2018-04-15T23:01:38.839Z,17.95
2018-04-15T23:04:06.401Z,17.96
2018-04-15T23:06:34.175Z,17.95
2018-04-15T23:09:01.741Z,17.90
2018-04-15T23:11:29.293Z,17.86
2018-04-15T23:13:57.029Z,17.83
2018-04-15T23:16:24.835Z,17.81
2018-04-15T23:18:52.666Z,17.78
2018-04-15T23:21:20.241Z,17.77
2018-04-15T23:23:47.801Z,17.74
2018-04-15T23:26:15.369Z,17.71
2018-04-15T23:28:42.933Z,17.68
2018-04-15T23:31:10.494Z,17.69
2018-04-15T23:33:38.067Z,17.67
2018-04-15T23:36:05.661Z,17.67
2018-04-15T23:38:33.296Z,17.64
2018-04-15T23:41:00.858Z,17.62
2018-04-15T23:43:28.430Z,17.56
2018-04-15T23:45:55.985Z,17.59
2018-04-15T23:48:23.556Z,17.58
2018-04-15T23:50:51.129Z,17.57
2018-04-15T23:53:18.693Z,17.51
2018-04-15T23:55:46.271Z,17.49
2018-04-15T23:58:13.879Z,17.45
